Terminal Aerodrome Forecast
Issued by NWS

Home | Current Version | Previous Version | Text Only | Print | Product List | Glossary On
Versions: 1 2 3 4 5 6 7 8 9 10 11 12 13 14 15 16 17 18 19 20 21 22 23 24
410
FTUS43 KLSX 260520
TAFCPS
TAF
KCPS 260520Z 2606/2706 17009KT P6SM SCT130
     FM261000 18007KT P6SM VCSH BKN045
     FM261400 18010KT P6SM OVC025
     FM262000 19010KT 5SM -SHRA VCTS OVC020CB
     FM270100 23007KT P6SM OVC020
     FM270500 33009KT P6SM OVC020=

USA.gov is the U.S. government's official web portal to all federal, state and local government web resources and services.